createdAt,value
2022-09-12T00:05:23.223Z,2110.72241
2022-09-12T00:20:25.432Z,1781.10938
2022-09-12T00:35:27.643Z,1138.66345
2022-09-12T00:50:29.896Z,854.59692
2022-09-12T01:05:32.175Z,924.1153
2022-09-12T01:20:34.430Z,498.61475
2022-09-12T01:35:36.693Z,272.08066
2022-09-12T01:50:38.959Z,232.52707
2022-09-12T02:05:41.343Z,71.91559
2022-09-12T02:20:48.559Z,15.58171
2022-09-12T02:35:51.706Z,1.19859
2022-09-12T02:50:54.038Z,0
2022-09-12T03:05:56.284Z,0
2022-09-12T03:20:58.885Z,0
2022-09-12T03:36:01.211Z,0
2022-09-12T03:51:03.679Z,0
2022-09-12T04:06:06.018Z,0
2022-09-12T04:21:08.241Z,0
2022-09-12T04:36:10.532Z,0
2022-09-12T04:51:12.910Z,0
2022-09-12T05:06:15.226Z,0
2022-09-12T05:21:17.482Z,0
2022-09-12T05:36:19.744Z,0
2022-09-12T05:51:22.121Z,0
2022-09-12T06:06:24.350Z,0
2022-09-12T06:21:26.650Z,0
2022-09-12T06:36:29.064Z,0
2022-09-12T06:51:31.398Z,0
2022-09-12T07:06:33.673Z,0
2022-09-12T07:21:35.898Z,0
2022-09-12T07:36:38.160Z,0
2022-09-12T07:51:40.432Z,0
2022-09-12T08:06:42.651Z,0
2022-09-12T08:21:45.065Z,0
2022-09-12T08:36:47.354Z,0
2022-09-12T08:51:49.598Z,0
2022-09-12T09:06:51.806Z,0
2022-09-12T09:21:54.081Z,0
2022-09-12T09:36:56.389Z,0
2022-09-12T09:52:00.553Z,0
2022-09-12T10:07:03.015Z,0
2022-09-12T10:22:05.318Z,0
2022-09-12T10:37:07.557Z,0
2022-09-12T10:52:09.778Z,0
2022-09-12T11:07:12.270Z,0
2022-09-12T11:22:14.712Z,0
2022-09-12T11:37:18.208Z,0
2022-09-12T11:52:20.499Z,0
2022-09-12T12:07:22.718Z,0
2022-09-12T12:22:25.186Z,0
2022-09-12T12:37:27.436Z,0
2022-09-12T12:52:29.724Z,0
2022-09-12T13:07:32.139Z,2.39719
2022-09-12T13:22:34.352Z,16.7803
2022-09-12T13:37:36.618Z,50.34091
2022-09-12T13:52:38.946Z,104.2776
2022-09-12T14:07:41.330Z,133.04384
2022-09-12T14:22:43.542Z,345.19482
2022-09-12T14:37:45.811Z,256.49893
2022-09-12T14:52:48.097Z,237.32144
2022-09-12T15:07:50.548Z,292.45673
2022-09-12T15:22:52.768Z,652.03467
2022-09-12T15:37:55.165Z,647.2403
2022-09-12T15:52:57.395Z,1048.76904
2022-09-12T16:07:59.697Z,1047.57043
2022-09-12T16:23:02.110Z,566.93457
2022-09-12T16:38:04.784Z,703.57416
2022-09-12T16:53:07.059Z,696.38263
2022-09-12T17:08:09.336Z,624.46704
2022-09-12T17:23:11.720Z,1283.69324
2022-09-12T17:38:18.050Z,1958.50122
2022-09-12T17:53:21.694Z,1100.30847
2022-09-12T18:08:23.902Z,1737.96008
2022-09-12T18:23:26.067Z,2123.90698
2022-09-12T18:38:28.264Z,2605.74146
2022-09-12T18:53:30.457Z,1825.4574
2022-09-12T19:08:32.737Z,1779.91077
2022-09-12T19:23:35.037Z,2152.67334
2022-09-12T19:38:37.277Z,1742.75439
2022-09-12T19:53:39.468Z,1782.30798
2022-09-12T20:08:41.763Z,1615.70361
2022-09-12T20:23:43.987Z,2361.22852
2022-09-12T20:38:46.321Z,2181.43945
2022-09-12T20:53:48.727Z,2127.50293
2022-09-12T21:08:51.080Z,2139.48877
2022-09-12T21:23:53.278Z,2678.85571
2022-09-12T21:38:55.544Z,1608.51196
2022-09-12T21:53:57.789Z,1875.79822
2022-09-12T22:08:59.966Z,1193.79883
2022-09-12T22:24:02.336Z,1117.08887
2022-09-12T22:39:04.575Z,1004.42108
2022-09-12T22:54:06.780Z,1123.08179
2022-09-12T23:09:09.114Z,719.15588
2022-09-12T23:24:11.345Z,578.92047
2022-09-12T23:39:13.544Z,463.85556
2022-09-12T23:54:15.791Z,667.61639
